Time;durP1;ratioP1;P1;durP2;ratioP2;P2;SDS_P1;SDS_P2;PMS_P1;PMS_P2;Temp;Humidity;BMP_temperature;BMP_pressure;BME280_temperature;BME280_humidity;BME280_pressure;Samples;Min_cycle;Max_cycle;Signal;HPM_P1;HPM_P2
2023/07/13 00:00:53;;;;;;;7.97;2.20;;;;;;;15.41;74.42;101260.50;5283412;28;20031;-72
2023/07/13 00:03:24;;;;;;;7.90;2.83;;;;;;;15.31;74.86;101254.59;5283368;28;20036;-72
2023/07/13 00:06:00;;;;;;;12.43;2.93;;;;;;;15.25;75.09;101259.16;5283416;28;20021;-71
2023/07/13 00:08:32;;;;;;;6.72;2.22;;;;;;;15.18;75.27;101255.78;5283279;28;20115;-72
2023/07/13 00:11:04;;;;;;;10.68;2.85;;;;;;;15.28;75.69;101257.31;5283191;28;20031;-72
2023/07/13 00:13:38;;;;;;;8.23;2.57;;;;;;;15.27;75.64;101254.72;5283423;28;20103;-72
2023/07/13 00:16:11;;;;;;;6.65;2.58;;;;;;;15.25;76.00;101254.75;5282499;28;20383;-73
2023/07/13 00:18:42;;;;;;;11.57;2.75;;;;;;;15.19;75.80;101244.41;5282794;28;20036;-72
2023/07/13 00:21:14;;;;;;;7.13;2.83;;;;;;;15.16;76.66;101254.97;5283220;28;20372;-72
2023/07/13 00:23:45;;;;;;;7.57;2.53;;;;;;;15.28;76.99;101253.84;5283228;28;20028;-72
2023/07/13 00:26:17;;;;;;;11.23;2.77;;;;;;;15.17;76.52;101251.47;5283176;28;20029;-72
2023/07/13 00:28:48;;;;;;;6.73;3.00;;;;;;;15.31;76.40;101254.59;5283340;28;20040;-72
2023/07/13 00:31:21;;;;;;;10.87;2.60;;;;;;;15.14;76.83;101247.13;5283604;28;20028;-72
2023/07/13 00:33:52;;;;;;;11.15;2.88;;;;;;;15.22;76.99;101249.56;5285790;28;20044;-73
2023/07/13 00:36:23;;;;;;;8.17;2.53;;;;;;;15.17;76.97;101255.84;5287122;28;20039;-72
2023/07/13 00:38:55;;;;;;;11.23;3.33;;;;;;;15.05;77.87;101264.88;5287124;28;20131;-72
2023/07/13 00:41:26;;;;;;;11.27;4.67;;;;;;;15.07;78.03;101261.31;5287017;28;20048;-72
2023/07/13 00:43:57;;;;;;;11.67;4.13;;;;;;;15.00;78.30;101256.25;5287005;28;20121;-72
2023/07/13 00:46:32;;;;;;;10.67;4.17;;;;;;;15.00;78.81;101261.50;5286441;28;20029;-73
2023/07/13 00:49:07;;;;;;;9.00;3.25;;;;;;;14.95;79.21;101265.09;5286783;28;20048;-73
2023/07/13 00:51:44;;;;;;;10.45;3.00;;;;;;;14.90;79.55;101264.34;5286841;28;20395;-73
2023/07/13 00:54:27;;;;;;;8.23;3.30;;;;;;;14.90;79.78;101266.97;5286726;28;20036;-73
2023/07/13 00:57:04;;;;;;;8.07;2.92;;;;;;;14.92;79.93;101261.66;5286851;28;20111;-73
2023/07/13 00:59:39;;;;;;;5.50;2.67;;;;;;;14.94;80.41;101263.38;5286682;28;20032;-73
2023/07/13 01:02:11;;;;;;;8.70;2.92;;;;;;;14.90;80.09;101253.84;5286832;28;20356;-72
2023/07/13 01:04:43;;;;;;;7.80;2.75;;;;;;;14.80;80.30;101256.72;5285282;28;20139;-72
2023/07/13 01:07:15;;;;;;;6.57;2.50;;;;;;;14.89;80.65;101262.63;5286403;28;20104;-72
2023/07/13 01:09:47;;;;;;;10.05;2.83;;;;;;;14.77;80.66;101257.66;5286621;28;20040;-73
2023/07/13 01:12:18;;;;;;;7.43;2.50;;;;;;;14.86;81.47;101251.31;5286425;28;20043;-73
2023/07/13 01:14:58;;;;;;;12.83;2.80;;;;;;;14.82;81.00;101257.53;5286483;28;20025;-72
2023/07/13 01:17:30;;;;;;;11.27;3.28;;;;;;;14.80;81.10;101256.72;5285814;28;20111;-72
2023/07/13 01:20:02;;;;;;;;;;;;;;;15.01;79.35;101263.22;5286617;28;20028;-72
2023/07/13 01:22:33;;;;;;;7.68;2.92;;;;;;;14.77;80.59;101266.38;5286118;28;19908;-73
2023/07/13 01:25:05;;;;;;;10.20;3.17;;;;;;;14.69;81.50;101270.06;5285786;28;20357;-73
2023/07/13 01:27:36;;;;;;;9.43;3.20;;;;;;;14.65;81.77;101273.66;5286500;28;20367;-72
2023/07/13 01:30:08;;;;;;;8.77;3.03;;;;;;;14.63;82.08;101273.69;5286000;28;20032;-72
2023/07/13 01:32:41;;;;;;;8.35;2.72;;;;;;;14.72;82.71;101278.75;5286082;28;20028;-72
2023/07/13 01:35:13;;;;;;;7.90;2.60;;;;;;;14.67;83.23;101271.88;5285999;28;20033;-72
2023/07/13 01:37:44;;;;;;;12.27;2.57;;;;;;;14.70;83.07;101264.81;5285857;28;20044;-72
2023/07/13 01:40:16;;;;;;;14.30;2.67;;;;;;;14.57;83.12;101276.41;5285528;28;20029;-72
2023/07/13 01:42:47;;;;;;;7.27;3.27;;;;;;;14.47;83.66;101273.13;5285238;28;20414;-72
2023/07/13 01:45:19;;;;;;;5.00;2.20;;;;;;;14.58;83.90;101279.00;5285779;28;20121;-72
2023/07/13 01:47:50;;;;;;;6.47;2.73;;;;;;;14.52;83.79;101284.41;5285449;28;20043;-72
2023/07/13 01:50:21;;;;;;;7.17;2.63;;;;;;;14.45;84.41;101288.03;5285669;28;20035;-72
2023/07/13 01:52:53;;;;;;;10.17;3.07;;;;;;;14.34;84.67;101285.63;5284377;28;20123;-72
2023/07/13 01:55:24;;;;;;;7.10;2.97;;;;;;;14.38;85.38;101282.06;5285537;28;20043;-71
2023/07/13 01:57:56;;;;;;;10.90;2.90;;;;;;;14.32;85.56;101281.31;5285469;28;20029;-73
2023/07/13 02:00:27;;;;;;;6.63;2.73;;;;;;;14.37;85.47;101285.56;5285752;28;20086;-73
2023/07/13 02:02:59;;;;;;;7.47;2.60;;;;;;;14.27;85.72;101283.19;5285314;28;20075;-73
2023/07/13 02:05:30;;;;;;;9.73;2.77;;;;;;;14.29;86.06;101281.38;5285367;28;20106;-73
2023/07/13 02:08:02;;;;;;;8.37;2.83;;;;;;;14.26;86.47;101278.81;5285011;28;20039;-73
2023/07/13 02:10:33;;;;;;;7.10;2.53;;;;;;;14.29;86.39;101286.63;5285227;28;20028;-73
2023/07/13 02:13:07;;;;;;;8.17;2.43;;;;;;;14.29;86.78;101291.88;5284910;28;20431;-73
2023/07/13 02:15:40;;;;;;;9.25;2.72;;;;;;;14.25;86.81;101298.06;5285126;28;20029;-73
2023/07/13 02:18:16;;;;;;;9.10;3.15;;;;;;;14.26;86.77;101297.16;5284616;28;20033;-73
2023/07/13 02:20:48;;;;;;;11.95;3.25;;;;;;;14.28;87.46;101298.00;5285175;28;20039;-73
2023/07/13 02:23:19;;;;;;;9.73;3.03;;;;;;;14.23;87.50;101298.09;5283731;28;20032;-73
2023/07/13 02:25:58;;;;;;;8.93;3.13;;;;;;;14.18;87.63;101297.31;5284858;28;20122;-73
2023/07/13 02:28:29;;;;;;;10.52;2.72;;;;;;;14.10;87.99;101289.59;5284328;28;20029;-72
2023/07/13 02:31:09;;;;;;;7.17;2.50;;;;;;;14.05;88.17;101288.81;5284544;28;20387;-73
2023/07/13 02:33:41;;;;;;;9.68;3.15;;;;;;;14.01;88.35;101290.66;5285019;28;20083;-73
2023/07/13 02:36:16;;;;;;;7.32;3.22;;;;;;;14.06;88.54;101292.34;5284730;28;20070;-73
2023/07/13 02:38:50;;;;;;;7.90;2.70;;;;;;;14.02;89.02;101289.75;5284582;28;20060;-73
2023/07/13 02:41:22;;;;;;;10.18;4.57;;;;;;;14.01;89.41;101293.28;5284572;28;20470;-73
2023/07/13 02:43:56;;;;;;;7.95;2.97;;;;;;;13.98;89.33;101292.47;5284529;28;20376;-74
2023/07/13 02:46:32;;;;;;;7.43;2.83;;;;;;;14.02;89.91;101292.38;5284016;28;20360;-73
2023/07/13 02:49:04;;;;;;;4.65;2.60;;;;;;;13.98;89.99;101287.22;5284179;28;20036;-74
2023/07/13 02:51:35;;;;;;;8.48;2.88;;;;;;;13.95;89.99;101293.38;5283142;28;20036;-73
2023/07/13 02:54:08;;;;;;;8.67;3.33;;;;;;;13.92;90.19;101298.69;5283479;28;20032;-73
2023/07/13 02:56:40;;;;;;;9.65;3.53;;;;;;;13.85;90.88;101289.22;5284166;28;20475;-74
2023/07/13 02:59:12;;;;;;;9.27;3.28;;;;;;;13.91;91.18;101291.72;5284196;28;20032;-73
2023/07/13 03:01:43;;;;;;;10.10;3.77;;;;;;;13.82;91.08;101290.13;5284195;28;20593;-74
2023/07/13 03:04:19;;;;;;;8.10;3.40;;;;;;;13.83;91.35;101289.25;5284158;28;20025;-74
2023/07/13 03:06:50;;;;;;;11.10;4.25;;;;;;;13.83;92.38;101289.25;5284061;28;20115;-73
2023/07/13 03:09:22;;;;;;;8.03;3.13;;;;;;;13.75;92.24;101285.91;5283934;28;20120;-73
2023/07/13 03:11:54;;;;;;;11.00;3.33;;;;;;;13.78;91.87;101295.44;5284051;28;20517;-74
2023/07/13 03:14:26;;;;;;;;;;;;;;;13.90;90.75;101294.38;5284423;28;20036;-73
2023/07/13 03:16:57;;;;;;;11.60;3.95;;;;;;;13.75;92.25;101296.38;5283575;28;19909;-73
2023/07/13 03:19:29;;;;;;;8.13;3.23;;;;;;;13.71;92.39;101296.47;5283784;28;20039;-73
2023/07/13 03:22:01;;;;;;;8.07;3.83;;;;;;;13.70;92.63;101303.47;5283883;28;20025;-73
2023/07/13 03:24:33;;;;;;;8.23;3.57;;;;;;;13.70;93.31;101287.75;5282503;28;20078;-74
2023/07/13 03:27:05;;;;;;;;;;;;;;;13.84;91.67;101295.34;5284198;28;20031;-73
2023/07/13 03:29:36;;;;;;;14.75;3.45;;;;;;;13.72;93.22;101301.66;5283655;28;20419;-74
2023/07/13 03:32:08;;;;;;;12.80;3.40;;;;;;;13.75;93.42;101298.13;5283784;28;20093;-73
2023/07/13 03:34:40;;;;;;;10.88;3.40;;;;;;;13.73;93.75;101313.84;5283390;28;20555;-73
2023/07/13 03:37:11;;;;;;;15.93;4.33;;;;;;;13.66;94.29;101302.63;5283598;28;20135;-73
2023/07/13 03:39:42;;;;;;;10.00;3.97;;;;;;;13.65;94.88;101305.28;5283732;28;20082;-74
2023/07/13 03:42:14;;;;;;;9.93;4.27;;;;;;;13.66;94.72;101307.00;5283762;28;20471;-74
2023/07/13 03:44:52;;;;;;;10.93;3.80;;;;;;;13.68;95.27;101310.47;5283312;28;20045;-74
2023/07/13 03:47:23;;;;;;;9.13;3.25;;;;;;;13.60;95.52;101302.72;5283285;28;20049;-72
2023/07/13 03:49:54;;;;;;;17.73;3.90;;;;;;;13.59;95.27;101308.88;5283609;28;20064;-73
2023/07/13 03:52:26;;;;;;;13.43;3.83;;;;;;;13.66;95.83;101314.88;5283581;28;20025;-74
2023/07/13 03:54:57;;;;;;;11.60;4.33;;;;;;;13.64;95.87;101317.50;5283493;28;20036;-74
2023/07/13 03:57:29;;;;;;;10.53;4.13;;;;;;;13.66;96.13;101322.72;5283418;28;20391;-74
2023/07/13 04:00:01;;;;;;;8.88;3.67;;;;;;;13.63;96.26;101312.31;5283496;28;20388;-74
2023/07/13 04:02:32;;;;;;;13.23;4.53;;;;;;;13.67;95.93;101321.84;5283064;28;20085;-74
2023/07/13 04:05:04;;;;;;;11.43;3.47;;;;;;;13.67;96.79;101317.47;5283161;28;20044;-73
2023/07/13 04:07:35;;;;;;;15.13;5.53;;;;;;;13.70;97.09;101328.78;5287510;28;20409;-73
2023/07/13 04:10:07;;;;;;;13.47;4.27;;;;;;;13.67;96.73;101335.81;5287739;28;20040;-73
2023/07/13 04:12:38;;;;;;;16.67;3.95;;;;;;;13.74;96.51;101333.94;5287602;28;20440;-73
2023/07/13 04:15:10;;;;;;;12.03;5.40;;;;;;;13.82;96.92;101345.16;5286134;28;20542;-73
2023/07/13 04:17:41;;;;;;;14.47;3.87;;;;;;;13.86;96.90;101343.34;5285775;28;20029;-74
2023/07/13 04:20:12;;;;;;;13.90;4.50;;;;;;;13.93;96.92;101347.59;5287149;28;20468;-75
2023/07/13 04:22:44;;;;;;;11.90;5.00;;;;;;;14.01;96.31;101347.47;5287720;28;20036;-72
2023/07/13 04:25:16;;;;;;;12.97;4.37;;;;;;;14.01;96.26;101352.72;5287422;28;20044;-74
2023/07/13 04:27:47;;;;;;;15.48;6.07;;;;;;;13.99;96.89;101343.97;5287281;28;20036;-71
2023/07/13 04:30:19;;;;;;;21.03;5.50;;;;;;;14.01;97.42;101350.94;5286832;28;20075;-72
2023/07/13 04:32:52;;;;;;;18.27;5.90;;;;;;;14.11;97.48;101351.63;5287223;28;20036;-71
2023/07/13 04:35:23;;;;;;;;;;;;;;;14.22;96.76;101352.28;5287619;28;20475;-72
2023/07/13 04:37:55;;;;;;;17.20;6.75;;;;;;;14.21;96.93;101347.94;5286511;28;19927;-73
2023/07/13 04:40:27;;;;;;;14.00;6.27;;;;;;;14.25;97.64;101355.75;5287093;28;20086;-72
2023/07/13 04:42:58;;;;;;;;;;;;;;;14.39;97.25;101359.84;5287450;28;20029;-71
2023/07/13 04:45:31;;;;;;;17.23;7.63;;;;;;;14.38;98.17;101363.34;5286931;28;19912;-72
2023/07/13 04:48:03;;;;;;;22.02;8.63;;;;;;;14.46;98.79;101368.47;5286455;28;20394;-72
2023/07/13 04:50:37;;;;;;;22.37;9.57;;;;;;;14.47;98.76;101369.31;5286407;28;20111;-72
2023/07/13 04:53:08;;;;;;;20.52;9.50;;;;;;;14.52;98.56;101370.97;5286704;28;20478;-72
2023/07/13 04:55:40;;;;;;;21.57;9.87;;;;;;;14.61;98.54;101371.72;5286803;28;20033;-74
2023/07/13 04:58:12;;;;;;;23.98;10.10;;;;;;;14.70;98.32;101374.13;5286459;28;20067;-72
2023/07/13 05:00:43;;;;;;;19.17;9.50;;;;;;;14.77;98.40;101366.09;5285535;28;20060;-72
2023/07/13 05:03:14;;;;;;;26.57;11.67;;;;;;;14.86;97.95;101374.66;5286603;28;20028;-72
2023/07/13 05:06:00;;;;;;;23.53;11.07;;;;;;;14.90;98.92;101373.72;5286541;28;20549;-72
2023/07/13 05:08:32;;;;;;;25.98;11.98;;;;;;;14.93;98.18;101379.75;5286481;28;20075;-72
2023/07/13 05:11:06;;;;;;;27.47;12.10;;;;;;;14.94;97.99;101378.00;5286383;28;20056;-72
2023/07/13 05:13:38;;;;;;;24.52;12.07;;;;;;;14.99;98.01;101375.28;5286166;28;20052;-73
2023/07/13 05:16:09;;;;;;;30.63;11.77;;;;;;;15.06;97.80;101376.88;5286337;28;20056;-72
2023/07/13 05:18:41;;;;;;;32.83;13.70;;;;;;;15.10;98.00;101382.03;5283465;28;20472;-72
2023/07/13 05:21:12;;;;;;;29.60;13.53;;;;;;;15.13;98.01;101388.97;5286574;28;20486;-71
2023/07/13 05:23:43;;;;;;;23.40;12.57;;;;;;;15.14;97.67;101391.56;5286371;28;20059;-71
2023/07/13 05:26:15;;;;;;;27.73;12.97;;;;;;;15.14;97.89;101388.94;5286231;28;20040;-72
2023/07/13 05:28:47;;;;;;;25.63;12.47;;;;;;;15.20;98.36;101393.19;5285946;28;20044;-73
2023/07/13 05:31:18;;;;;;;31.70;12.53;;;;;;;15.28;98.51;101395.66;5285994;28;20267;-74
2023/07/13 05:33:50;;;;;;;29.30;12.95;;;;;;;15.29;98.36;101398.25;5286046;28;20033;-73
2023/07/13 05:36:22;;;;;;;24.17;12.43;;;;;;;15.24;98.20;101405.34;5285592;28;20031;-73
2023/07/13 05:38:53;;;;;;;30.90;14.07;;;;;;;15.27;98.31;101397.41;5267372;28;20298;-73
2023/07/13 05:41:24;;;;;;;24.10;12.57;;;;;;;15.25;97.68;101400.97;5285948;28;20523;-72
2023/07/13 05:43:56;;;;;;;23.87;11.30;;;;;;;15.33;98.21;101399.03;5301223;28;20602;-73
2023/07/13 05:46:28;;;;;;;22.50;11.87;;;;;;;15.35;97.29;101396.38;5285140;28;20032;-73
2023/07/13 05:48:59;;;;;;;28.13;13.40;;;;;;;15.37;97.46;101408.56;5285713;28;20498;-72
2023/07/13 05:51:31;;;;;;;25.73;12.00;;;;;;;15.49;97.43;101403.03;5284507;28;20035;-74
2023/07/13 05:54:03;;;;;;;31.43;12.57;;;;;;;15.55;96.74;101411.66;5285719;28;20033;-72
2023/07/13 05:56:34;;;;;;;23.73;12.57;;;;;;;15.63;97.26;101404.47;5285653;28;20035;-73
2023/07/13 05:59:05;;;;;;;29.13;13.90;;;;;;;15.58;96.23;101404.56;5285254;28;20136;-73
2023/07/13 06:01:37;;;;;;;27.30;12.83;;;;;;;15.61;96.27;101414.16;5285521;28;20036;-73
2023/07/13 06:04:08;;;;;;;31.93;12.97;;;;;;;15.64;96.61;101414.94;5285079;28;20505;-74
2023/07/13 06:06:42;;;;;;;23.80;12.40;;;;;;;15.76;96.28;101419.09;5284864;28;20032;-73
2023/07/13 06:09:13;;;;;;;30.50;12.73;;;;;;;15.90;95.35;101424.00;5283914;28;20116;-73
2023/07/13 06:11:45;;;;;;;24.43;11.97;;;;;;;16.11;94.98;101419.09;5284004;28;20107;-73
2023/07/13 06:14:16;;;;;;;24.00;11.77;;;;;;;16.36;95.27;101428.06;5285107;28;20109;-73
2023/07/13 06:16:48;;;;;;;24.27;13.00;;;;;;;16.20;92.15;101435.50;5284883;28;20064;-72
2023/07/13 06:19:19;;;;;;;27.57;11.53;;;;;;;16.19;92.64;101435.53;5285143;28;20038;-72
2023/07/13 06:21:51;;;;;;;20.93;11.73;;;;;;;16.17;92.97;101435.59;5285173;28;20036;-73
2023/07/13 06:24:22;;;;;;;26.03;12.03;;;;;;;16.19;92.44;101440.81;5285036;28;20036;-72
2023/07/13 06:26:54;;;;;;;23.20;12.10;;;;;;;16.18;92.70;101436.44;5285110;28;20028;-72
2023/07/13 06:29:25;;;;;;;23.57;12.07;;;;;;;16.19;93.39;101433.75;5284770;28;20537;-72
2023/07/13 06:31:57;;;;;;;29.03;12.67;;;;;;;16.20;92.46;101446.03;5284911;28;20412;-74
2023/07/13 06:34:28;;;;;;;26.60;11.67;;;;;;;16.23;93.06;101442.47;5284861;28;20036;-73
2023/07/13 06:36:59;;;;;;;22.50;13.10;;;;;;;16.20;93.52;101442.53;5284824;28;20040;-73
2023/07/13 06:39:32;;;;;;;23.60;10.93;;;;;;;16.15;92.59;101449.69;5284781;28;20052;-74
2023/07/13 06:42:04;;;;;;;24.27;10.80;;;;;;;16.27;93.38;101444.09;5283363;28;20036;-73
2023/07/13 06:44:35;;;;;;;25.88;11.82;;;;;;;16.31;93.12;101443.13;5284078;28;20106;-73
2023/07/13 06:47:07;;;;;;;31.97;12.30;;;;;;;16.26;91.96;101447.66;5284081;28;20445;-73
2023/07/13 06:49:38;;;;;;;24.23;11.00;;;;;;;16.24;91.54;101459.97;5284353;28;20089;-71
2023/07/13 06:52:10;;;;;;;23.53;11.43;;;;;;;16.22;91.93;101456.50;5284665;28;20036;-72
2023/07/13 06:54:41;;;;;;;20.97;11.87;;;;;;;16.22;91.60;101460.00;5284090;28;20394;-72
2023/07/13 06:57:12;;;;;;;21.93;12.33;;;;;;;16.35;92.05;101463.19;5284411;28;20029;-73
2023/07/13 06:59:44;;;;;;;22.47;10.27;;;;;;;16.43;91.44;101456.88;5283882;28;20040;-73
2023/07/13 07:02:15;;;;;;;23.50;11.17;;;;;;;16.46;91.48;101462.91;5284274;28;20029;-73
2023/07/13 07:04:47;;;;;;;19.13;10.30;;;;;;;16.52;91.11;101467.16;5284190;28;20035;-72
2023/07/13 07:07:18;;;;;;;26.90;11.37;;;;;;;16.64;91.38;101453.63;5284454;28;20068;-72
2023/07/13 07:09:49;;;;;;;27.03;12.17;;;;;;;16.52;89.83;101472.41;5284095;28;20483;-71
2023/07/13 07:12:21;;;;;;;25.97;10.77;;;;;;;16.69;89.86;101459.63;5284053;28;20024;-72
2023/07/13 07:14:52;;;;;;;25.43;10.67;;;;;;;16.82;90.35;101468.06;5284205;28;20029;-72
2023/07/13 07:17:25;;;;;;;20.40;9.33;;;;;;;16.88;89.72;101461.81;5283227;28;20039;-72
2023/07/13 07:19:56;;;;;;;24.50;10.60;;;;;;;16.92;90.81;101455.53;5282684;28;20086;-72
2023/07/13 07:22:27;;;;;;;21.07;9.60;;;;;;;17.01;90.40;101476.34;5283626;28;20028;-73
2023/07/13 07:24:59;;;;;;;27.20;10.47;;;;;;;16.98;88.63;101467.66;5283979;28;20150;-73
2023/07/13 07:27:30;;;;;;;18.47;9.10;;;;;;;16.91;88.41;101470.47;5283765;28;20115;-72
2023/07/13 07:30:02;;;;;;;21.77;9.87;;;;;;;17.01;88.44;101471.06;5283867;28;20028;-73
2023/07/13 07:32:33;;;;;;;20.03;9.57;;;;;;;17.08;87.30;101477.91;5283804;28;20119;-72
2023/07/13 07:35:05;;;;;;;21.83;9.23;;;;;;;17.03;86.57;101476.28;5283715;28;20107;-72
2023/07/13 07:37:37;;;;;;;20.58;9.20;;;;;;;17.31;87.42;101484.28;5283596;28;20040;-71
2023/07/13 07:40:08;;;;;;;19.27;10.07;;;;;;;17.40;85.58;101488.38;5283194;28;20057;-71
2023/07/13 07:42:40;;;;;;;24.83;10.33;;;;;;;17.31;85.71;101474.59;5283503;28;20745;-72
2023/07/13 07:45:11;;;;;;;20.60;7.90;;;;;;;17.44;86.30;101475.06;5283593;28;20029;-72
2023/07/13 07:47:43;;;;;;;19.53;8.27;;;;;;;17.53;84.27;101481.81;5282864;28;20032;-73
2023/07/13 07:50:15;;;;;;;20.50;8.53;;;;;;;17.77;84.63;101479.34;5283933;28;20440;-73
2023/07/13 07:52:46;;;;;;;22.90;8.18;;;;;;;17.79;82.92;101488.94;5282315;28;20108;-71
2023/07/13 07:55:18;;;;;;;14.85;7.38;;;;;;;17.93;83.32;101474.47;5283464;28;20028;-71
2023/07/13 07:57:49;;;;;;;17.83;7.77;;;;;;;18.14;81.28;101480.81;5283538;28;20434;-72
2023/07/13 08:00:21;;;;;;;18.73;7.20;;;;;;;18.18;80.18;101485.94;5283534;28;20039;-71
2023/07/13 08:02:52;;;;;;;17.13;6.17;;;;;;;18.15;80.81;101483.41;5283504;28;20024;-73
2023/07/13 08:05:24;;;;;;;14.97;6.67;;;;;;;18.01;79.61;101480.34;5283493;28;20033;-72
2023/07/13 08:07:56;;;;;;;21.83;6.93;;;;;;;17.94;79.77;101492.88;5283484;28;20503;-71
2023/07/13 08:10:27;;;;;;;15.30;6.07;;;;;;;17.92;80.05;101492.09;5283813;28;20036;-72
2023/07/13 08:12:58;;;;;;;15.70;6.63;;;;;;;17.88;80.39;101495.72;5283392;28;20111;-73
2023/07/13 08:15:30;;;;;;;16.37;6.00;;;;;;;17.92;78.98;101492.09;5282075;28;20035;-71
2023/07/13 08:18:02;;;;;;;12.97;5.87;;;;;;;18.10;78.92;101489.75;5282851;28;20078;-72
2023/07/13 08:20:38;;;;;;;16.60;7.22;;;;;;;18.16;77.90;101486.91;5283256;28;20119;-72
2023/07/13 08:23:10;;;;;;;13.77;5.32;;;;;;;18.46;77.42;101492.06;5283206;28;20372;-71
2023/07/13 08:25:41;;;;;;;10.88;4.90;;;;;;;19.02;78.57;101483.91;5283154;28;20025;-72
2023/07/13 08:28:13;;;;;;;15.43;6.17;;;;;;;19.10;74.54;101495.06;5283187;28;20043;-71
2023/07/13 08:30:44;;;;;;;10.77;5.80;;;;;;;19.09;72.75;101489.84;5283133;28;20060;-72
2023/07/13 08:33:19;;;;;;;13.20;5.30;;;;;;;19.00;72.92;101492.81;5283150;28;20040;-72
2023/07/13 08:35:51;;;;;;;11.02;4.68;;;;;;;19.06;75.80;101487.31;5282812;28;20028;-73
2023/07/13 08:38:23;;;;;;;13.23;5.23;;;;;;;19.26;74.23;101495.34;5282581;28;20057;-73
2023/07/13 08:40:56;;;;;;;11.52;5.35;;;;;;;19.60;72.73;101496.69;5283014;28;20043;-73
2023/07/13 08:43:34;;;;;;;12.57;5.00;;;;;;;19.30;70.51;101490.81;5283023;28;20489;-73
2023/07/13 08:46:14;;;;;;;13.68;5.47;;;;;;;19.19;71.02;101496.53;5282945;28;20365;-73
2023/07/13 08:48:52;;;;;;;11.57;5.57;;;;;;;18.97;70.71;101492.94;5282541;28;20063;-73
2023/07/13 08:51:58;;;;;;;11.45;4.72;;;;;;;19.11;71.37;101502.09;5283221;28;20036;-71
2023/07/13 08:54:39;;;;;;;15.75;5.22;;;;;;;18.87;73.01;101485.34;5286736;28;20037;-72
2023/07/13 08:57:14;;;;;;;13.32;5.45;;;;;;;18.86;72.20;101493.34;5287192;28;20052;-72
2023/07/13 08:59:46;;;;;;;11.73;4.90;;;;;;;18.97;72.54;101487.66;5286761;28;20028;-72
2023/07/13 09:02:27;;;;;;;12.70;5.10;;;;;;;19.21;72.28;101492.03;5286617;28;20029;-71
2023/07/13 09:05:03;;;;;;;9.73;4.53;;;;;;;19.23;69.59;101489.31;5286611;28;20024;-72
2023/07/13 09:08:00;;;;;;;13.27;5.18;;;;;;;19.58;70.31;101490.59;5286407;28;20029;-72
2023/07/13 09:10:42;;;;;;;10.93;4.80;;;;;;;19.71;68.12;101495.44;5283360;28;20108;-71
2023/07/13 09:13:14;;;;;;;11.93;4.25;;;;;;;19.85;67.47;101486.03;5285388;28;20099;-72
2023/07/13 09:15:48;;;;;;;10.50;5.17;;;;;;;20.02;67.75;101480.03;5286394;28;20074;-73
2023/07/13 09:18:28;;;;;;;11.70;5.32;;;;;;;20.22;67.27;101496.88;5285904;28;20553;-73
2023/07/13 09:21:07;;;;;;;17.70;4.93;;;;;;;19.94;65.51;101490.06;5286561;28;20067;-72
2023/07/13 09:23:39;;;;;;;11.02;4.93;;;;;;;19.87;64.48;101499.19;5286587;28;20527;-72
2023/07/13 09:26:16;;;;;;;16.03;4.43;;;;;;;19.98;64.85;101489.03;5286150;28;20147;-73
2023/07/13 09:28:58;;;;;;;7.70;3.70;;;;;;;20.33;64.23;101486.69;5286091;28;20705;-72
2023/07/13 09:31:49;;;;;;;7.90;3.65;;;;;;;20.55;64.02;101483.13;5286089;28;20020;-73
2023/07/13 09:34:21;;;;;;;11.50;4.60;;;;;;;20.57;60.84;101487.41;5286262;28;20024;-74
2023/07/13 09:36:52;;;;;;;12.60;4.43;;;;;;;20.33;61.29;101477.88;5285823;28;20511;-72
2023/07/13 09:39:35;;;;;;;14.47;4.53;;;;;;;20.30;62.07;101481.56;5284656;28;20063;-73
2023/07/13 09:42:15;;;;;;;9.48;3.88;;;;;;;20.47;62.03;101485.25;5286231;28;20085;-74
2023/07/13 09:44:58;;;;;;;8.27;4.22;;;;;;;20.51;61.26;101477.13;5285879;28;20453;-73
2023/07/13 09:47:32;;;;;;;9.13;4.13;;;;;;;20.67;61.91;101487.94;5285366;28;20040;-72
2023/07/13 09:50:08;;;;;;;11.93;4.28;;;;;;;20.98;59.78;101489.22;5285728;28;20120;-72
2023/07/13 09:52:48;;;;;;;9.02;3.13;;;;;;;21.06;58.50;101486.22;5285664;28;20036;-73
2023/07/13 09:55:34;;;;;;;11.77;3.72;;;;;;;21.20;59.43;101490.88;5285928;28;20142;-74
2023/07/13 09:58:24;;;;;;;12.60;4.03;;;;;;;21.02;58.04;101493.44;5285568;28;20058;-73
2023/07/13 10:01:05;;;;;;;9.70;4.20;;;;;;;21.04;58.94;101490.72;5285600;28;20028;-73
2023/07/13 10:03:41;;;;;;;10.48;3.60;;;;;;;20.93;59.75;101493.88;5284829;28;20471;-73
2023/07/13 10:06:17;;;;;;;8.00;2.90;;;;;;;21.13;57.74;101490.28;5285371;28;20086;-72
2023/07/13 10:08:51;;;;;;;9.80;3.95;;;;;;;20.96;58.63;101491.03;5285397;28;20043;-72
2023/07/13 10:11:27;;;;;;;13.27;3.42;;;;;;;20.79;58.76;101497.13;5284029;28;20051;-73
2023/07/13 10:14:02;;;;;;;9.25;3.35;;;;;;;21.09;59.08;101500.19;5285572;28;20025;-72
2023/07/13 10:16:35;;;;;;;9.45;3.30;;;;;;;21.10;55.23;101483.31;5285578;28;20410;-72
2023/07/13 10:19:20;;;;;;;6.78;2.42;;;;;;;21.15;54.91;101488.44;5285004;28;20038;-72
2023/07/13 10:22:13;;;;;;;7.88;3.10;;;;;;;21.15;55.02;101492.88;5285433;28;20066;-73
2023/07/13 10:24:44;;;;;;;6.90;2.63;;;;;;;21.55;54.02;101497.19;5285556;28;20115;-73
2023/07/13 10:27:32;;;;;;;13.68;3.97;;;;;;;21.66;53.83;101499.34;5285362;28;20119;-73
2023/07/13 10:30:30;;;;;;;9.57;3.47;;;;;;;22.00;54.65;101495.91;5284990;28;20028;-73
2023/07/13 10:33:05;;;;;;;8.40;3.17;;;;;;;21.83;55.43;101495.88;5284840;28;20033;-74
2023/07/13 10:35:39;;;;;;;8.05;2.88;;;;;;;21.69;57.27;101488.59;5284613;28;20027;-72
2023/07/13 10:38:15;;;;;;;10.27;3.60;;;;;;;21.37;58.44;101498.06;5284296;28;20068;-74
2023/07/13 10:41:11;;;;;;;7.88;3.55;;;;;;;21.04;58.13;101503.97;5284805;28;20043;-74
2023/07/13 10:43:47;;;;;;;7.80;3.28;;;;;;;20.55;59.48;101501.66;5283381;28;20123;-73
2023/07/13 10:46:27;;;;;;;9.45;3.10;;;;;;;20.30;65.00;101515.97;5284162;28;20036;-73
2023/07/13 10:49:04;;;;;;;10.43;3.67;;;;;;;19.76;65.83;101531.38;5283845;28;20028;-73
2023/07/13 10:51:37;;;;;;;8.40;3.58;;;;;;;19.64;68.05;101539.75;5284238;28;20094;-75
2023/07/13 10:54:18;;;;;;;10.13;4.60;;;;;;;19.25;70.05;101532.41;5284644;28;20460;-73
2023/07/13 10:57:07;;;;;;;11.88;4.75;;;;;;;19.43;74.94;101536.13;5284306;28;20028;-74
2023/07/13 10:59:41;;;;;;;10.68;4.80;;;;;;;19.31;71.58;101521.63;5284104;28;20039;-73
2023/07/13 11:02:27;;;;;;;12.90;5.13;;;;;;;19.38;72.59;101524.88;5284084;28;20375;-74
2023/07/13 11:04:58;;;;;;;14.48;4.65;;;;;;;19.82;70.36;101527.63;5284135;28;20059;-73
2023/07/13 11:07:32;;;;;;;8.90;4.53;;;;;;;20.50;70.71;101522.19;5284086;28;20056;-74
2023/07/13 11:10:05;;;;;;;9.63;4.22;;;;;;;21.07;63.87;101512.63;5284529;28;20032;-74
2023/07/13 11:13:02;;;;;;;8.55;4.18;;;;;;;22.42;65.44;101519.56;5282649;28;20411;-74
2023/07/13 11:15:47;;;;;;;13.38;4.25;;;;;;;22.72;62.75;101519.78;5279795;28;20039;-74
2023/07/13 11:18:22;;;;;;;6.60;3.53;;;;;;;22.88;57.55;101514.50;5283573;28;20070;-74
2023/07/13 11:21:13;;;;;;;13.98;4.90;;;;;;;23.29;54.63;101516.75;5283974;28;20025;-73
2023/07/13 11:24:01;;;;;;;8.70;4.00;;;;;;;22.84;56.92;101505.81;5283597;28;20115;-73
2023/07/13 11:26:42;;;;;;;11.57;4.95;;;;;;;22.57;58.60;101519.63;5283568;28;20078;-73
2023/07/13 11:29:39;;;;;;;10.45;4.47;;;;;;;22.43;55.39;101519.47;5283763;28;20036;-72
2023/07/13 11:32:31;;;;;;;8.13;4.80;;;;;;;22.54;55.83;101519.78;5283723;28;20464;-72
2023/07/13 11:35:02;;;;;;;12.30;4.78;;;;;;;23.29;52.76;101522.06;5283791;28;20089;-73
2023/07/13 11:37:34;;;;;;;10.15;3.80;;;;;;;23.58;53.52;101515.13;5283070;28;20127;-72
2023/07/13 11:40:14;;;;;;;9.57;4.47;;;;;;;23.89;51.71;101515.25;5283392;28;20133;-73
2023/07/13 11:42:45;;;;;;;10.07;4.07;;;;;;;24.25;48.79;101512.25;5283267;28;20024;-74
2023/07/13 11:45:22;;;;;;;8.63;3.73;;;;;;;24.69;46.43;101518.56;5283436;28;20097;-73
2023/07/13 11:47:56;;;;;;;10.27;3.72;;;;;;;23.90;46.35;101520.47;5283176;28;20077;-73
2023/07/13 11:50:31;;;;;;;17.17;4.45;;;;;;;23.07;48.73;101515.28;5283982;28;20036;-72